createdAt,value
2022-11-07T00:00:10.787Z,3.400
2022-11-07T00:01:10.787Z,2
2022-11-07T00:02:10.568Z,2.099
2022-11-07T00:04:10.210Z,2
2022-11-07T00:05:10.739Z,1.799
2022-11-07T00:06:10.250Z,1.899
2022-11-07T00:07:10.922Z,2.900
2022-11-07T00:08:10.617Z,2.099
2022-11-07T00:09:10.246Z,2.299
2022-11-07T00:11:10.914Z,1.700
2022-11-07T00:12:11.064Z,2.099
2022-11-07T00:13:09.986Z,1.299
2022-11-07T00:14:10.210Z,2.400
2022-11-07T00:15:10.295Z,1.5
2022-11-07T00:16:10.553Z,2.799
2022-11-07T00:17:10.454Z,2.200
2022-11-07T00:18:10.727Z,3.299
2022-11-07T00:20:10.885Z,3
2022-11-07T00:21:10.537Z,2.299
2022-11-07T00:22:10.469Z,3.299
2022-11-07T00:23:10.305Z,2.200
2022-11-07T00:25:10.670Z,2.099
2022-11-07T00:26:10.858Z,1.600
2022-11-07T00:27:10.481Z,1.700
2022-11-07T00:28:10.528Z,2
2022-11-07T00:29:10.204Z,1.600
2022-11-07T00:30:10.139Z,3.799
2022-11-07T00:31:10.418Z,2
2022-11-07T00:32:10.248Z,2.799
2022-11-07T00:33:09.971Z,2.299
2022-11-07T00:34:10.254Z,2.700
2022-11-07T00:35:11.400Z,2.799
2022-11-07T00:36:10.049Z,3.299
2022-11-07T00:37:10.931Z,3.700
2022-11-07T00:38:10.572Z,3.400
2022-11-07T00:39:09.979Z,2.5
2022-11-07T00:40:10.709Z,3.099
2022-11-07T00:41:10.201Z,2.5
2022-11-07T00:42:10.086Z,3
2022-11-07T00:43:10.675Z,2.599
2022-11-07T00:44:10.738Z,3.900
2022-11-07T00:45:10.683Z,3.299
2022-11-07T00:46:10.489Z,4.800
2022-11-07T00:47:09.994Z,3.799
2022-11-07T00:48:10.609Z,4.099
2022-11-07T00:49:09.978Z,4.300
2022-11-07T00:50:10.766Z,4
2022-11-07T00:51:09.937Z,4.599
2022-11-07T00:52:10.451Z,4.900
2022-11-07T00:53:09.917Z,3.5
2022-11-07T00:54:10.183Z,4
2022-11-07T00:55:10.758Z,3.5
2022-11-07T00:56:10.632Z,4.300
2022-11-07T00:57:10.420Z,3.5
2022-11-07T00:58:13.585Z,5
2022-11-07T00:59:10.010Z,5.099
2022-11-07T01:00:11.709Z,2.700
2022-11-07T01:01:11.698Z,4.699
2022-11-07T01:02:11.062Z,4.099
2022-11-07T01:03:10.525Z,3.799
2022-11-07T01:04:11.043Z,5.099
2022-11-07T01:05:10.880Z,3.599
2022-11-07T01:06:10.657Z,4.900
2022-11-07T01:07:10.359Z,3.299
2022-11-07T01:08:09.965Z,3.700
2022-11-07T01:10:09.944Z,3.799
2022-11-07T01:11:10.489Z,4
2022-11-07T01:12:10.137Z,3.900
2022-11-07T01:13:10.682Z,3.5
2022-11-07T01:14:09.968Z,2.5
2022-11-07T01:15:10.839Z,5
2022-11-07T01:16:10.138Z,3.299
2022-11-07T01:17:10.076Z,3.799
2022-11-07T01:18:10.597Z,4.099
2022-11-07T01:19:10.245Z,4.599
2022-11-07T01:20:10.801Z,6.199
2022-11-07T01:21:16.091Z,5.900
2022-11-07T01:22:09.995Z,4.800
2022-11-07T01:23:10.375Z,3.900
2022-11-07T01:24:10.471Z,4.400
2022-11-07T01:26:10.559Z,4.5
2022-11-07T01:27:10.205Z,2.900
2022-11-07T01:28:10.705Z,4.800
2022-11-07T01:29:10.116Z,4
2022-11-07T01:30:11.036Z,5.099
2022-11-07T01:31:10.662Z,4
2022-11-07T01:33:10.900Z,3.299
2022-11-07T01:34:09.923Z,4
2022-11-07T01:36:10.825Z,4.400
2022-11-07T01:37:10.217Z,3.799
2022-11-07T01:38:10.653Z,4.300
2022-11-07T01:39:09.844Z,3.900
2022-11-07T01:40:10.785Z,4.5
2022-11-07T01:41:10.885Z,3.799
2022-11-07T01:43:10.102Z,4.300
2022-11-07T01:44:10.671Z,5
2022-11-07T01:45:10.356Z,4.5
2022-11-07T01:46:09.984Z,5.400
2022-11-07T01:47:10.297Z,3.700
2022-11-07T01:48:10.713Z,4.5
2022-11-07T01:49:09.890Z,4.199
2022-11-07T01:50:10.848Z,5.300
2022-11-07T01:51:10.524Z,6.099
2022-11-07T01:52:10.211Z,5.199
2022-11-07T01:53:10.651Z,4.300
2022-11-07T01:54:10.694Z,4.699
2022-11-07T01:55:10.354Z,3.599
2022-11-07T01:56:10.043Z,5.199
2022-11-07T01:57:10.397Z,4.800
2022-11-07T01:58:10.642Z,5
2022-11-07T02:00:10.519Z,3.900
2022-11-07T02:01:10.635Z,3.599
2022-11-07T02:02:10.950Z,5.599
2022-11-07T02:03:10.671Z,4.400
2022-11-07T02:05:10.419Z,3.799
2022-11-07T02:06:10.575Z,6.099
2022-11-07T02:07:10.029Z,5.599
2022-11-07T02:08:10.814Z,4.400
2022-11-07T02:09:10.396Z,4.300
2022-11-07T02:10:10.219Z,5.099
2022-11-07T02:11:10.715Z,3.900
2022-11-07T02:12:10.242Z,4.400
2022-11-07T02:13:09.978Z,5.599
2022-11-07T02:14:10.479Z,5.300
2022-11-07T02:15:10.540Z,4
2022-11-07T02:16:10.403Z,6.300
2022-11-07T02:17:10.255Z,4.599
2022-11-07T02:18:11.039Z,6.099
2022-11-07T02:19:10.564Z,4.599
2022-11-07T02:21:10.719Z,5.099
2022-11-07T02:22:10.175Z,6.099
2022-11-07T02:23:10.676Z,5.099
2022-11-07T02:24:10.481Z,3.799
2022-11-07T02:25:10.068Z,4.900
2022-11-07T02:26:11.018Z,4
2022-11-07T02:27:10.513Z,5.599
2022-11-07T02:28:10.281Z,4.099
2022-11-07T02:29:10.730Z,4.800
2022-11-07T02:30:10.689Z,6.199
2022-11-07T02:31:10.584Z,4.800
2022-11-07T02:32:10.300Z,4.699
2022-11-07T02:33:10.778Z,4.800
2022-11-07T02:34:10.040Z,3.900
2022-11-07T02:35:10.775Z,3.700
2022-11-07T02:36:10.502Z,5
2022-11-07T02:37:10.380Z,3.299
2022-11-07T02:38:10.089Z,5.599
2022-11-07T02:39:10.779Z,4.800
2022-11-07T02:40:10.646Z,4.900
2022-11-07T02:41:10.314Z,5.599
2022-11-07T02:42:10.904Z,6
2022-11-07T02:43:10.610Z,5.5
2022-11-07T02:44:10.053Z,5.699
2022-11-07T02:45:10.533Z,4.5
2022-11-07T02:46:10.646Z,5.400
2022-11-07T02:47:10.303Z,5.800
2022-11-07T02:48:10.929Z,4.5
2022-11-07T02:49:10.642Z,5.199
2022-11-07T02:50:10.550Z,5.5
2022-11-07T02:51:10.291Z,5.699
2022-11-07T02:52:10.104Z,6.199
2022-11-07T02:53:10.357Z,6.900
2022-11-07T02:54:10.779Z,5.300
2022-11-07T02:55:10.364Z,4.5
2022-11-07T02:56:10.402Z,4.300
2022-11-07T02:57:10.170Z,4.900
2022-11-07T02:58:10.198Z,6.300
2022-11-07T02:59:10.665Z,5
2022-11-07T03:00:11.009Z,6.400
2022-11-07T03:01:10.313Z,6.199
2022-11-07T03:03:10.021Z,6.699
2022-11-07T03:04:10.098Z,6.300
2022-11-07T03:05:10.693Z,7.699
2022-11-07T03:06:10.090Z,6.400
2022-11-07T03:07:10.631Z,4.400
2022-11-07T03:08:10.217Z,6.300
2022-11-07T03:09:10.694Z,7.199
2022-11-07T03:10:10.483Z,6.099
2022-11-07T03:11:10.053Z,6.400
2022-11-07T03:12:10.506Z,6.099
2022-11-07T03:13:09.987Z,6.199
2022-11-07T03:14:10.385Z,6.5
2022-11-07T03:15:11.123Z,5.800
2022-11-07T03:16:10.347Z,4.5
2022-11-07T03:17:10.879Z,6.199
2022-11-07T03:18:10.740Z,5
2022-11-07T03:19:10.273Z,6.199
2022-11-07T03:20:10.947Z,5.199
2022-11-07T03:21:10.337Z,6
2022-11-07T03:22:10.173Z,6.099
2022-11-07T03:23:10.758Z,5.699
2022-11-07T03:24:09.958Z,5.400
2022-11-07T03:25:10.379Z,6.599
2022-11-07T03:26:10.487Z,6.300
2022-11-07T03:27:11.047Z,6
2022-11-07T03:28:10.667Z,6.400
2022-11-07T03:29:10.523Z,6.300
2022-11-07T03:30:10.471Z,7
2022-11-07T03:31:10.318Z,8.100
2022-11-07T03:32:10.051Z,5.800
2022-11-07T03:33:10.543Z,7
2022-11-07T03:34:10.842Z,4.5
2022-11-07T03:35:10.509Z,5.800
2022-11-07T03:36:10.452Z,7
2022-11-07T03:37:10.428Z,6.599
2022-11-07T03:38:09.873Z,5
2022-11-07T03:39:10.293Z,6.699
2022-11-07T03:40:09.952Z,6.199
2022-11-07T03:41:10.345Z,5.800
2022-11-07T03:42:09.999Z,5.599
2022-11-07T03:43:10.515Z,4.699
2022-11-07T03:44:10.644Z,4.300
2022-11-07T03:45:10.474Z,6
2022-11-07T03:46:10.068Z,5
2022-11-07T03:47:10.552Z,5.5
2022-11-07T03:48:10.201Z,5.099
2022-11-07T03:49:10.650Z,7.199
2022-11-07T03:50:10.361Z,5.099
2022-11-07T03:51:10.153Z,5.900
2022-11-07T03:52:10.745Z,6.699
2022-11-07T03:53:10.017Z,7
2022-11-07T03:54:10.742Z,5.199
2022-11-07T03:55:10.183Z,6.300
2022-11-07T03:56:10.833Z,6.400
2022-11-07T03:57:10.691Z,5.400
2022-11-07T03:58:15.192Z,6
2022-11-07T03:59:10.701Z,5.599
2022-11-07T04:00:10.513Z,7.400
2022-11-07T04:01:10.848Z,6.5
2022-11-07T04:02:10.645Z,7.199
2022-11-07T04:03:10.796Z,6.099
2022-11-07T04:04:09.973Z,5.599
2022-11-07T04:05:11.053Z,7.5
2022-11-07T04:06:10.678Z,6.099
2022-11-07T04:07:10.130Z,6.699
2022-11-07T04:08:10.563Z,6.199
2022-11-07T04:09:10.169Z,5.699
2022-11-07T04:10:10.121Z,5.599
2022-11-07T04:11:10.677Z,6.400
2022-11-07T04:12:10.190Z,6.599
2022-11-07T04:13:10.861Z,5.699
2022-11-07T04:14:10.188Z,7.099
2022-11-07T04:15:10.977Z,6.099
2022-11-07T04:16:16.426Z,5.5
2022-11-07T04:17:10.182Z,6.5
2022-11-07T04:18:10.911Z,7.099
2022-11-07T04:19:10.765Z,5.400
2022-11-07T04:20:10.330Z,5.599
2022-11-07T04:21:11.174Z,6.300
2022-11-07T04:22:10.746Z,7.900
2022-11-07T04:23:10.084Z,4.800
2022-11-07T04:24:10.508Z,5.800
2022-11-07T04:25:10.209Z,6.400
2022-11-07T04:26:10.107Z,8.5
2022-11-07T04:27:10.646Z,6.300
2022-11-07T04:28:24.102Z,6.800
2022-11-07T04:29:10.915Z,5.599
2022-11-07T04:30:10.707Z,7.400
2022-11-07T04:31:10.028Z,6.099
2022-11-07T04:32:10.679Z,8
2022-11-07T04:33:09.937Z,6
2022-11-07T04:34:09.961Z,5.900
2022-11-07T04:35:10.156Z,6.900
2022-11-07T04:36:10.664Z,7.400
2022-11-07T04:37:09.968Z,8.399
2022-11-07T04:38:10.617Z,9
2022-11-07T04:39:10.358Z,6.5
2022-11-07T04:40:10.803Z,8.600
2022-11-07T04:41:10.288Z,6.199
2022-11-07T04:42:09.738Z,6.599
2022-11-07T04:44:10.115Z,6.5
2022-11-07T04:45:11.079Z,6.300
2022-11-07T04:46:10.102Z,6.900
2022-11-07T04:47:10.400Z,6.400
2022-11-07T04:49:10.234Z,5.800
2022-11-07T04:50:10.912Z,7.5
2022-11-07T04:51:10.348Z,5.900
2022-11-07T04:52:09.810Z,6.5
2022-11-07T04:53:10.135Z,7.699
2022-11-07T04:54:10.102Z,5.800
2022-11-07T04:55:10.344Z,7.5
2022-11-07T04:56:09.709Z,5.900
2022-11-07T04:57:10.100Z,6.300
2022-11-07T04:58:09.779Z,8
2022-11-07T04:59:10.043Z,6.900
2022-11-07T05:00:11.411Z,5.5
2022-11-07T05:01:10.559Z,8.399
2022-11-07T05:02:10.383Z,7.699
2022-11-07T05:03:10.398Z,6.5
2022-11-07T05:04:09.902Z,7
2022-11-07T05:05:10.580Z,8.100
2022-11-07T05:06:10.371Z,6.5
2022-11-07T05:08:10.698Z,5.300
2022-11-07T05:09:10.119Z,5.800
2022-11-07T05:10:12.348Z,6.5
2022-11-07T05:11:11.135Z,4.900
2022-11-07T05:12:09.767Z,5.199
2022-11-07T05:13:10.508Z,4.800
2022-11-07T05:14:10.027Z,7.199
2022-11-07T05:15:10.779Z,5.800
2022-11-07T05:16:10.679Z,6.599
2022-11-07T05:17:10.396Z,8.600
2022-11-07T05:18:10.120Z,5.699
2022-11-07T05:19:10.790Z,9.899
2022-11-07T05:20:10.861Z,6.900
2022-11-07T05:21:10.819Z,6.800
2022-11-07T05:22:10.854Z,7.300
2022-11-07T05:23:10.913Z,5.699
2022-11-07T05:24:09.807Z,6.599
2022-11-07T05:25:10.838Z,7.800
2022-11-07T05:26:10.659Z,5.5
2022-11-07T05:27:10.430Z,7.099
2022-11-07T05:28:09.941Z,8.199
2022-11-07T05:29:10.633Z,6.5
2022-11-07T05:30:10.395Z,7
2022-11-07T05:31:10.470Z,7.400
2022-11-07T05:32:10.529Z,8.300
2022-11-07T05:33:10.263Z,6.900
2022-11-07T05:34:14.357Z,7
2022-11-07T05:35:10.238Z,7.800
2022-11-07T05:36:10.074Z,7.599
2022-11-07T05:37:10.680Z,6.199
2022-11-07T05:38:10.434Z,5.900
2022-11-07T05:39:10.034Z,5.5
2022-11-07T05:40:10.588Z,8.300
2022-11-07T05:41:10.676Z,7.699
2022-11-07T05:42:10.655Z,9.800
2022-11-07T05:43:10.386Z,7
2022-11-07T05:44:10.907Z,6
2022-11-07T05:45:10.709Z,6.099
2022-11-07T05:46:10.594Z,5.5
2022-11-07T05:47:10.638Z,7.699
2022-11-07T05:49:09.897Z,7.199
2022-11-07T05:50:10.805Z,6.599
2022-11-07T05:51:10.397Z,7.300
2022-11-07T05:52:09.958Z,6.5
2022-11-07T05:53:10.503Z,6.199
2022-11-07T05:54:09.907Z,6.400
2022-11-07T05:55:10.259Z,6.300
2022-11-07T05:56:09.790Z,7.400
2022-11-07T05:57:10.160Z,8.100
2022-11-07T05:58:10.653Z,6.800
2022-11-07T05:59:10.624Z,9.199
2022-11-07T06:00:10.817Z,5.5
2022-11-07T06:01:10.158Z,8.899
2022-11-07T06:02:10.885Z,6.699
2022-11-07T06:03:10.869Z,5.5
2022-11-07T06:04:10.117Z,8.600
2022-11-07T06:05:11.042Z,7.199
2022-11-07T06:06:10.050Z,8.5
2022-11-07T06:07:10.386Z,8.199
2022-11-07T06:08:11.278Z,7.900
2022-11-07T06:09:10.406Z,6.5
2022-11-07T06:10:10.458Z,7.900
2022-11-07T06:11:10.549Z,7.199
2022-11-07T06:12:10.874Z,5.699
2022-11-07T06:13:09.632Z,6.199
2022-11-07T06:14:09.966Z,6.099
2022-11-07T06:15:10.781Z,5.5
2022-11-07T06:16:11.099Z,4.599
2022-11-07T06:17:10.184Z,7.599
2022-11-07T06:18:09.963Z,6.099
2022-11-07T06:19:10.546Z,7.199
2022-11-07T06:20:10.083Z,6.699
2022-11-07T06:21:10.888Z,6.800
2022-11-07T06:22:10.849Z,7.199
2022-11-07T06:23:10.926Z,7.599
2022-11-07T06:24:15.088Z,8.899
2022-11-07T06:25:10.508Z,5.599
2022-11-07T06:26:10.407Z,7.199
2022-11-07T06:27:09.956Z,6.199
2022-11-07T06:28:11.009Z,7.400
2022-11-07T06:29:09.798Z,7
2022-11-07T06:30:10.657Z,7.099
2022-11-07T06:31:10.673Z,7.400
2022-11-07T06:32:10.623Z,8
2022-11-07T06:33:10.795Z,8.600
2022-11-07T06:34:10.877Z,7.099
2022-11-07T06:35:15.710Z,8.600
2022-11-07T06:36:10.471Z,7.900
2022-11-07T06:37:10.087Z,7
2022-11-07T06:38:09.853Z,8.699
2022-11-07T06:39:10.805Z,5.900
2022-11-07T06:40:10.987Z,4.900
2022-11-07T06:41:10.612Z,9.300
2022-11-07T06:42:10.794Z,4.599
2022-11-07T06:43:10.582Z,7.199
2022-11-07T06:45:10.845Z,7.599
2022-11-07T06:46:10.417Z,6.5
2022-11-07T06:47:10.492Z,8.300
2022-11-07T06:48:10.738Z,7.099
2022-11-07T06:49:10.922Z,7.599
2022-11-07T06:50:10.252Z,6.5
2022-11-07T06:51:10.138Z,5.400
2022-11-07T06:52:10.327Z,6.099
2022-11-07T06:53:10.779Z,5.400
2022-11-07T06:54:10.322Z,9.699
2022-11-07T06:55:10.484Z,6.699
2022-11-07T06:56:10.123Z,5.900
2022-11-07T06:57:10.796Z,5.699
2022-11-07T06:58:10.826Z,7.599
2022-11-07T06:59:10.817Z,7.300
2022-11-07T07:00:11.522Z,6.800
2022-11-07T07:01:09.806Z,7
2022-11-07T07:02:11.179Z,7.099
2022-11-07T07:03:10.599Z,5
2022-11-07T07:04:10.160Z,6.300
2022-11-07T07:05:10.882Z,8.100
2022-11-07T07:06:10.389Z,7.300
2022-11-07T07:07:10.171Z,5.699
2022-11-07T07:08:10.114Z,8
2022-11-07T07:09:11.000Z,5.800
2022-11-07T07:10:10.058Z,6
2022-11-07T07:11:10.392Z,8.5
2022-11-07T07:12:10.634Z,7.099
2022-11-07T07:13:32.388Z,5.199
2022-11-07T07:14:11.750Z,6.800
2022-11-07T07:15:11.136Z,6.699
2022-11-07T07:16:10.155Z,7.199
2022-11-07T07:17:11.168Z,7.599
2022-11-07T07:18:10.267Z,5.5
2022-11-07T07:19:10.967Z,6.900
2022-11-07T07:20:11.433Z,5.800
2022-11-07T07:21:10.848Z,7.199
2022-11-07T07:22:10.747Z,8
2022-11-07T07:23:11.155Z,7.5
2022-11-07T07:24:10.810Z,7.800
2022-11-07T07:25:10.553Z,6.199
2022-11-07T07:26:10.553Z,7.5
2022-11-07T07:27:10.545Z,6.599
2022-11-07T07:28:10.220Z,6.199
2022-11-07T07:29:10.324Z,6.400
2022-11-07T07:30:10.681Z,7.800
2022-11-07T07:31:10.996Z,6.599
2022-11-07T07:32:10.258Z,7
2022-11-07T07:34:10.963Z,4.900
2022-11-07T07:35:10.933Z,6
2022-11-07T07:36:12.465Z,5.300
2022-11-07T07:37:10.362Z,6.300
2022-11-07T07:38:10.515Z,4.699
2022-11-07T07:39:10.886Z,5.900
2022-11-07T07:40:10.696Z,7.699
2022-11-07T07:41:10.895Z,5
2022-11-07T07:42:10.976Z,5.5
2022-11-07T07:43:10.115Z,6.199
2022-11-07T07:44:10.667Z,5.900
2022-11-07T07:45:11.116Z,6.5
2022-11-07T07:46:10.292Z,6
2022-11-07T07:47:11.611Z,6.199
2022-11-07T07:48:10.779Z,4.800
2022-11-07T07:50:11.196Z,5.099
2022-11-07T07:51:10.248Z,7.099
2022-11-07T07:52:10.249Z,6.800
2022-11-07T07:53:10.262Z,5.400
2022-11-07T07:54:10.532Z,4.800
2022-11-07T07:55:10.248Z,7.800
2022-11-07T07:56:10.556Z,5.900
2022-11-07T07:57:10.514Z,5.599
2022-11-07T07:58:10.672Z,4.800
2022-11-07T07:59:10.131Z,6.099
2022-11-07T08:00:11.481Z,5.099
2022-11-07T08:01:11.446Z,5.800
2022-11-07T08:02:10.755Z,6.5
2022-11-07T08:03:10.936Z,5.199
2022-11-07T08:04:10.711Z,5
2022-11-07T08:05:11.136Z,5.400
2022-11-07T08:06:10.653Z,5.300
2022-11-07T08:07:10.541Z,5.800
2022-11-07T08:08:10.679Z,4.400
2022-11-07T08:09:10.424Z,6.199
2022-11-07T08:10:39.810Z,4.300
2022-11-07T08:11:11.207Z,6.199
2022-11-07T08:12:10.428Z,5.599
2022-11-07T08:13:10.430Z,3.799
2022-11-07T08:14:10.559Z,4.300
2022-11-07T08:15:10.676Z,4.199
2022-11-07T08:17:10.349Z,4.099
2022-11-07T08:18:10.582Z,3.700
2022-11-07T08:19:10.464Z,3.400
2022-11-07T08:20:10.399Z,3.900
2022-11-07T08:21:10.625Z,3.400
2022-11-07T08:22:10.765Z,4.199
2022-11-07T08:23:16.027Z,4.699
2022-11-07T08:24:10.756Z,3.299
2022-11-07T08:25:11.127Z,2.900
2022-11-07T08:26:10.116Z,4.099
2022-11-07T08:27:10.908Z,3.599
2022-11-07T08:28:11.015Z,4.699
2022-11-07T08:29:10.069Z,4.599
2022-11-07T08:30:15.129Z,4
2022-11-07T08:31:10.399Z,2.5
2022-11-07T08:32:10.582Z,3.700
2022-11-07T08:33:10.342Z,4
2022-11-07T08:34:11.107Z,4.300
2022-11-07T08:35:10.454Z,3.400
2022-11-07T08:36:10.427Z,4
2022-11-07T08:37:10.408Z,5.300
2022-11-07T08:38:13.921Z,3.799
2022-11-07T08:39:10.021Z,2.299
2022-11-07T08:40:10.955Z,3.5
2022-11-07T08:41:10.691Z,4.699
2022-11-07T08:42:10.454Z,4.199
2022-11-07T08:43:09.909Z,3.900
2022-11-07T08:44:10.189Z,3.700
2022-11-07T08:45:11.312Z,3.900
2022-11-07T08:46:10.318Z,4.400
2022-11-07T08:48:11.014Z,3.599
2022-11-07T08:49:10.894Z,4.199
2022-11-07T08:50:11.133Z,4.400
2022-11-07T08:51:12.594Z,3.700
2022-11-07T08:52:10.672Z,3.299
2022-11-07T08:53:10.607Z,5.699
2022-11-07T08:54:09.838Z,3.299
2022-11-07T08:55:11.527Z,3.400
2022-11-07T08:56:15.267Z,4.199
2022-11-07T08:57:10.015Z,4.599
2022-11-07T08:58:11.050Z,5.400
2022-11-07T08:59:10.653Z,5.599
2022-11-07T09:00:11.187Z,5
2022-11-07T09:01:10.600Z,5.099
2022-11-07T09:02:57.696Z,5.300
2022-11-07T09:03:43.717Z,4
2022-11-07T09:04:10.379Z,4.5
2022-11-07T09:05:09.987Z,4.300
2022-11-07T09:06:10.606Z,4.699
2022-11-07T09:07:09.836Z,5.199
2022-11-07T09:08:10.789Z,4.5
2022-11-07T09:09:15.453Z,5.199
2022-11-07T09:10:10.291Z,5
2022-11-07T09:11:10.019Z,6.5
2022-11-07T09:12:10.182Z,6.199
2022-11-07T09:13:10.761Z,5.099
2022-11-07T09:14:10.130Z,5.800
2022-11-07T09:15:10.999Z,4.199
2022-11-07T09:16:10.011Z,5.300
2022-11-07T09:17:10.708Z,5.800
2022-11-07T09:18:10.477Z,5.599
2022-11-07T09:19:10.327Z,5.699
2022-11-07T09:20:24.194Z,4.400
2022-11-07T09:21:10.090Z,4.900
2022-11-07T09:22:10.681Z,4.400
2022-11-07T09:23:10.353Z,5.199
2022-11-07T09:24:10.017Z,6.400
2022-11-07T09:25:10.892Z,5.699
2022-11-07T09:26:10.738Z,4.599
2022-11-07T09:27:10.815Z,6.400
2022-11-07T09:28:10.443Z,6.800
2022-11-07T09:29:09.555Z,7.5
2022-11-07T09:30:10.292Z,5.300
2022-11-07T09:31:10.073Z,6.199
2022-11-07T09:32:30.864Z,4.900
2022-11-07T09:33:09.722Z,5.099
2022-11-07T09:34:09.800Z,5
2022-11-07T09:35:10.805Z,5.300
2022-11-07T09:36:10.563Z,5.199
2022-11-07T09:37:10.005Z,5.300
2022-11-07T09:38:10.644Z,4.599
2022-11-07T09:39:10.852Z,5.400
2022-11-07T09:40:11.058Z,5.5
2022-11-07T09:41:09.786Z,5.099
2022-11-07T09:42:12.399Z,4.199
2022-11-07T09:43:10.462Z,4.900
2022-11-07T09:44:10.119Z,4.5
2022-11-07T09:45:10.231Z,4.900
2022-11-07T09:46:10.163Z,3.599
2022-11-07T09:47:10.185Z,7.300
2022-11-07T09:48:09.751Z,3.900
2022-11-07T09:49:10.812Z,4.5
2022-11-07T09:50:11.039Z,3.900
2022-11-07T09:51:09.901Z,4.599
2022-11-07T09:52:10.931Z,3.799
2022-11-07T09:53:09.839Z,4.099
2022-11-07T09:54:09.830Z,3.700
2022-11-07T09:55:10.743Z,3.799
2022-11-07T09:56:10.898Z,4.5
2022-11-07T09:57:13.975Z,4.099
2022-11-07T09:58:10.210Z,3.400
2022-11-07T09:59:14.176Z,3.900
2022-11-07T10:00:11.214Z,3.200
2022-11-07T10:01:09.442Z,2.799
2022-11-07T10:02:10.478Z,4.800
2022-11-07T10:03:11.139Z,3.799
2022-11-07T10:04:25.837Z,2.799
2022-11-07T10:05:09.935Z,3.5
2022-11-07T10:06:10.985Z,3.200
2022-11-07T10:08:10.607Z,2.299
2022-11-07T10:09:10.656Z,2.599
2022-11-07T10:10:10.418Z,3.400
2022-11-07T10:11:09.940Z,4.5
2022-11-07T10:12:11.105Z,2.5
2022-11-07T10:13:11.328Z,2.599
2022-11-07T10:15:10.890Z,3.599
2022-11-07T10:16:09.955Z,2
2022-11-07T10:17:10.910Z,2.400
2022-11-07T10:18:10.747Z,2
2022-11-07T10:19:10.571Z,2.599
2022-11-07T10:20:10.585Z,2.5
2022-11-07T10:21:36.685Z,2.599
2022-11-07T10:22:10.927Z,3
2022-11-07T10:23:10.539Z,2
2022-11-07T10:24:10.037Z,1.899
2022-11-07T10:25:11.149Z,2.299
2022-11-07T10:27:10.641Z,2.200
2022-11-07T10:28:10.555Z,2
2022-11-07T10:29:10.559Z,2.799
2022-11-07T10:30:11.038Z,2.5
2022-11-07T10:31:10.703Z,3.599
2022-11-07T10:32:10.619Z,2.200
2022-11-07T10:34:10.373Z,2.599
2022-11-07T10:35:10.392Z,4.5
2022-11-07T10:36:10.157Z,2.200
2022-11-07T10:37:11.000Z,4.599
2022-11-07T10:38:10.670Z,3.299
2022-11-07T10:39:10.697Z,1.600
2022-11-07T10:40:11.981Z,1.799
2022-11-07T10:41:10.130Z,2.099
2022-11-07T10:42:10.972Z,2.200
2022-11-07T10:43:10.553Z,1.799
2022-11-07T10:44:10.977Z,2.400
2022-11-07T10:45:10.942Z,3.200
2022-11-07T10:46:10.629Z,2.599
2022-11-07T10:47:10.149Z,2.799
2022-11-07T10:48:10.962Z,1.5
2022-11-07T10:49:10.074Z,1.600
2022-11-07T10:50:09.854Z,2.299
2022-11-07T10:51:10.567Z,2.400
2022-11-07T10:52:10.271Z,3
2022-11-07T10:53:10.050Z,1.700
2022-11-07T10:54:10.772Z,2.5
2022-11-07T10:55:10.806Z,2.200
2022-11-07T10:56:10.926Z,1.100
2022-11-07T10:57:10.790Z,1.600
2022-11-07T10:58:10.580Z,1.799
2022-11-07T10:59:10.609Z,1.5
2022-11-07T11:00:11.292Z,1.200
2022-11-07T11:01:09.913Z,2.299
2022-11-07T11:02:10.902Z,1.600
2022-11-07T11:03:10.815Z,2.799
2022-11-07T11:04:10.507Z,1.299
2022-11-07T11:06:10.412Z,2.299
2022-11-07T11:07:10.001Z,1.399
2022-11-07T11:08:10.259Z,2.299
2022-11-07T11:09:09.848Z,1.200
2022-11-07T11:10:10.548Z,2.299
2022-11-07T11:11:10.413Z,0.699
2022-11-07T11:12:10.657Z,2.900
2022-11-07T11:13:10.603Z,2.200
2022-11-07T11:14:10.602Z,2.5
2022-11-07T11:15:15.652Z,1.700
2022-11-07T11:16:10.402Z,1.5
2022-11-07T11:17:10.501Z,1.399
2022-11-07T11:18:10.614Z,1.700
2022-11-07T11:19:10.696Z,1.899
2022-11-07T11:20:10.791Z,1.799
2022-11-07T11:21:10.686Z,2.5
2022-11-07T11:22:10.793Z,2.200
2022-11-07T11:23:10.711Z,2.099
2022-11-07T11:24:10.249Z,1.100
2022-11-07T11:25:10.471Z,1.899
2022-11-07T11:27:10.251Z,3.599
2022-11-07T11:28:10.095Z,1.899
2022-11-07T11:29:10.627Z,3.099
2022-11-07T11:30:10.872Z,1.899
2022-11-07T11:31:10.727Z,3.200
2022-11-07T11:32:10.882Z,2.700
2022-11-07T11:33:19.327Z,2.200
2022-11-07T11:34:09.904Z,2.099
2022-11-07T11:35:24.049Z,3.5
2022-11-07T11:36:11.329Z,2.400
2022-11-07T11:37:10.134Z,1.299
2022-11-07T11:38:10.151Z,1.600
2022-11-07T11:39:10.466Z,2
2022-11-07T11:40:10.844Z,3.299
2022-11-07T11:41:11.442Z,1.5
2022-11-07T11:42:10.832Z,1.600
2022-11-07T11:43:24.600Z,2.200
2022-11-07T11:44:10.569Z,1.299
2022-11-07T11:45:10.148Z,3.799
2022-11-07T11:46:09.913Z,2.599
2022-11-07T11:47:10.824Z,1.200
2022-11-07T11:48:10.919Z,1.700
2022-11-07T11:49:11.007Z,0.899
2022-11-07T11:50:11.224Z,1.799
2022-11-07T11:51:11.136Z,1.899
2022-11-07T11:52:10.120Z,3.099
2022-11-07T11:53:09.922Z,1.100
2022-11-07T11:54:10.535Z,1.200
2022-11-07T11:55:10.091Z,2.5
2022-11-07T11:56:09.898Z,1.100
2022-11-07T11:57:10.422Z,1.299
2022-11-07T11:58:10.231Z,1.799
2022-11-07T11:59:09.968Z,1.200
2022-11-07T12:00:11.175Z,1.5
2022-11-07T12:01:32.403Z,1.600
2022-11-07T12:02:10.096Z,1.100
2022-11-07T12:03:10.961Z,1.700
2022-11-07T12:04:10.778Z,2.700
2022-11-07T12:05:32.884Z,2.099
2022-11-07T12:06:10.593Z,1.399
2022-11-07T12:07:10.595Z,0.5
2022-11-07T12:08:10.205Z,1.200
2022-11-07T12:09:15.447Z,1.899
2022-11-07T12:10:10.270Z,1.5
2022-11-07T12:11:10.154Z,2.299
2022-11-07T12:12:10.429Z,2.400
2022-11-07T12:13:10.119Z,1.399
2022-11-07T12:14:10.577Z,2.099
2022-11-07T12:15:10.423Z,1.5
2022-11-07T12:16:10.166Z,2.299
2022-11-07T12:17:10.901Z,2.400
2022-11-07T12:18:11.107Z,1.100
2022-11-07T12:19:09.916Z,2.299
2022-11-07T12:20:10.994Z,0.899
2022-11-07T12:21:10.354Z,1.5
2022-11-07T12:22:09.827Z,1.899
2022-11-07T12:23:10.883Z,1.799
2022-11-07T12:24:10.705Z,2.200
2022-11-07T12:25:10.654Z,1.299
2022-11-07T12:26:10.910Z,2.700
2022-11-07T12:28:10.537Z,1.600
2022-11-07T12:30:10.802Z,1.799
2022-11-07T12:31:10.560Z,2.5
2022-11-07T12:32:10.684Z,2.200
2022-11-07T12:33:10.651Z,1.799
2022-11-07T12:34:10.909Z,2.5
2022-11-07T12:35:11.072Z,2.400
2022-11-07T12:36:09.992Z,1.799
2022-11-07T12:37:10.704Z,2.200
2022-11-07T12:38:10.596Z,2.900
2022-11-07T12:39:10.130Z,1.700
2022-11-07T12:40:10.953Z,2.5
2022-11-07T12:41:10.791Z,2.200
2022-11-07T12:42:10.633Z,3
2022-11-07T12:43:10.053Z,2.900
2022-11-07T12:44:10.017Z,1.600
2022-11-07T12:45:10.720Z,2
2022-11-07T12:46:11.010Z,3.599
2022-11-07T12:47:10.683Z,1.299
2022-11-07T12:48:13.487Z,3.099
2022-11-07T12:50:10.162Z,1.600
2022-11-07T12:51:10.932Z,3
2022-11-07T12:52:10.743Z,1.799
2022-11-07T12:53:10.593Z,3
2022-11-07T12:54:13.871Z,2.299
2022-11-07T12:55:10.243Z,3.099
2022-11-07T12:56:10.255Z,1.700
2022-11-07T12:57:09.780Z,1.799
2022-11-07T12:58:10.561Z,2.799
2022-11-07T12:59:09.886Z,2.299
2022-11-07T13:00:11.174Z,1.799
2022-11-07T13:01:10.838Z,2.400
2022-11-07T13:02:11.094Z,2.099
2022-11-07T13:03:10.195Z,2.900
2022-11-07T13:04:10.904Z,3.400
2022-11-07T13:05:10.577Z,2.5
2022-11-07T13:06:10.479Z,3.599
2022-11-07T13:07:10.460Z,2.799
2022-11-07T13:08:10.246Z,2
2022-11-07T13:09:11.105Z,2.799
2022-11-07T13:10:10.697Z,2.900
2022-11-07T13:11:10.477Z,3.299
2022-11-07T13:12:10.068Z,2.700
2022-11-07T13:13:10.578Z,2.799
2022-11-07T13:14:09.821Z,2.5
2022-11-07T13:15:11.062Z,3.200
2022-11-07T13:16:15.608Z,3.099
2022-11-07T13:17:10.916Z,2.099
2022-11-07T13:18:11.083Z,2.799
2022-11-07T13:19:10.809Z,2.099
2022-11-07T13:20:10.767Z,2.700
2022-11-07T13:21:10.663Z,3.099
2022-11-07T13:22:10.485Z,2.400
2022-11-07T13:23:10.076Z,2.799
2022-11-07T13:24:10.403Z,3.299
2022-11-07T13:25:15.134Z,2.900
2022-11-07T13:26:40.189Z,2.799
2022-11-07T13:27:10.233Z,2.400
2022-11-07T13:28:09.649Z,3.5
2022-11-07T13:29:10.593Z,2.900
2022-11-07T13:30:12.112Z,2.599
2022-11-07T13:31:09.896Z,1.5
2022-11-07T13:32:10.569Z,2.5
2022-11-07T13:33:10.180Z,4.300
2022-11-07T13:34:10.481Z,2.299
2022-11-07T13:35:10.173Z,2.700
2022-11-07T13:36:10.711Z,3.299
2022-11-07T13:37:10.398Z,2.700
2022-11-07T13:38:09.932Z,2.5
2022-11-07T13:39:10.494Z,2.799